createdAt,value
2019-05-07T00:01:34.141Z,5.86
2019-05-07T00:04:07.407Z,5.87
2019-05-07T00:06:40.539Z,5.86
2019-05-07T00:09:14.481Z,5.84
2019-05-07T00:11:47.116Z,5.80
2019-05-07T00:14:19.803Z,5.76
2019-05-07T00:16:53.473Z,5.76
2019-05-07T00:19:27.314Z,5.75
2019-05-07T00:22:02.210Z,5.75
2019-05-07T00:24:35.295Z,5.79
2019-05-07T00:27:08.805Z,5.73
2019-05-07T00:29:42.930Z,5.67
2019-05-07T00:32:15.698Z,5.62
2019-05-07T00:34:57.241Z,5.58
2019-05-07T00:37:39.274Z,5.52
2019-05-07T00:40:33.528Z,5.48
2019-05-07T00:43:16.929Z,5.47
2019-05-07T00:45:56.812Z,5.46
2019-05-07T00:48:30.025Z,5.50
2019-05-07T00:51:08.088Z,5.54
2019-05-07T00:53:42.388Z,5.49
2019-05-07T00:56:15.137Z,5.45
2019-05-07T00:58:47.732Z,5.44
2019-05-07T01:01:22.520Z,5.45
2019-05-07T01:03:56.156Z,5.46
2019-05-07T01:06:28.764Z,5.47
2019-05-07T01:09:03.137Z,5.48
2019-05-07T01:11:36.310Z,5.50
2019-05-07T01:14:08.974Z,5.48
2019-05-07T01:16:42.198Z,5.45
2019-05-07T01:19:14.927Z,5.43
2019-05-07T01:21:49.264Z,5.43
2019-05-07T01:24:23.266Z,5.42
2019-05-07T01:26:56.205Z,5.39
2019-05-07T01:29:28.912Z,5.37
2019-05-07T01:32:15.369Z,5.34
2019-05-07T01:34:54.595Z,5.35
2019-05-07T01:37:27.311Z,5.32
2019-05-07T01:40:04.770Z,5.29
2019-05-07T01:42:37.969Z,5.26
2019-05-07T01:45:13.608Z,5.30
2019-05-07T01:47:46.213Z,5.29
2019-05-07T01:50:19.782Z,5.26
2019-05-07T01:52:52.431Z,5.22
2019-05-07T01:55:25.014Z,5.17
2019-05-07T01:57:58.422Z,5.18
2019-05-07T02:00:32.641Z,5.13
2019-05-07T02:03:15.752Z,5.17
2019-05-07T02:05:57.243Z,5.14
2019-05-07T02:08:45.327Z,5.07
2019-05-07T02:11:21.970Z,5.00
2019-05-07T02:13:54.577Z,4.99
2019-05-07T02:16:27.267Z,5.00
2019-05-07T02:19:01.984Z,5.00
2019-05-07T02:21:35.219Z,4.99
2019-05-07T02:24:07.763Z,4.98
2019-05-07T02:26:42.523Z,4.98
2019-05-07T02:29:15.351Z,4.97
2019-05-07T02:31:47.902Z,4.96
2019-05-07T02:34:23.360Z,4.93
2019-05-07T02:36:56.425Z,4.89
2019-05-07T02:39:43.998Z,4.93
2019-05-07T02:42:17.090Z,4.94
2019-05-07T02:44:55.350Z,4.98
2019-05-07T02:47:28.939Z,4.93
2019-05-07T02:50:09.299Z,4.86
2019-05-07T02:52:55.693Z,4.83
2019-05-07T02:55:35.189Z,4.80
2019-05-07T02:58:08.518Z,4.80
2019-05-07T03:00:43.473Z,4.79
2019-05-07T03:03:16.617Z,4.77
2019-05-07T03:05:49.471Z,4.75
2019-05-07T03:08:26.573Z,4.71
2019-05-07T03:11:03.046Z,4.65
2019-05-07T03:13:36.652Z,4.63
2019-05-07T03:16:09.425Z,4.67
2019-05-07T03:18:43.855Z,4.60
2019-05-07T03:21:47.669Z,4.55
2019-05-07T03:24:34.460Z,4.63
2019-05-07T03:27:07.173Z,4.58
2019-05-07T03:29:45.703Z,4.53
2019-05-07T03:32:37.816Z,4.48
2019-05-07T03:35:19.133Z,4.36
2019-05-07T03:37:54.652Z,4.26
2019-05-07T03:40:32.656Z,4.17
2019-05-07T03:43:08.774Z,4.10
2019-05-07T03:46:03.600Z,4.07
2019-05-07T03:48:47.953Z,4.02
2019-05-07T03:51:23.543Z,4.01
2019-05-07T03:53:57.637Z,4.04
2019-05-07T03:56:33.031Z,4.08
2019-05-07T03:59:05.807Z,4.00
2019-05-07T04:01:39.216Z,3.98
2019-05-07T04:04:13.207Z,4.01
2019-05-07T04:06:48.190Z,4.07
2019-05-07T04:09:23.902Z,4.09
2019-05-07T04:11:57.794Z,4.11
2019-05-07T04:14:34.552Z,4.13
2019-05-07T04:17:22.279Z,4.08
2019-05-07T04:19:58.529Z,4.11
2019-05-07T04:22:34.275Z,4.02
2019-05-07T04:25:30.091Z,3.95
2019-05-07T04:28:23.575Z,3.89
2019-05-07T04:30:58.913Z,3.86
2019-05-07T04:33:37.108Z,3.88
2019-05-07T04:36:16.085Z,3.97
2019-05-07T04:38:49.053Z,4.06
2019-05-07T04:41:23.343Z,4.21
2019-05-07T04:43:56.234Z,4.25
2019-05-07T04:46:28.972Z,4.25
2019-05-07T04:49:03.695Z,4.24
2019-05-07T04:52:03.663Z,4.26
2019-05-07T04:54:37.382Z,4.31
2019-05-07T04:57:25.299Z,4.44
2019-05-07T05:00:02.892Z,4.53
2019-05-07T05:02:53.073Z,4.63
2019-05-07T05:05:26.278Z,4.72
2019-05-07T05:07:58.990Z,4.88
2019-05-07T05:10:33.709Z,4.91
2019-05-07T05:13:06.561Z,4.93
2019-05-07T05:15:39.857Z,4.93
2019-05-07T05:18:12.856Z,4.96
2019-05-07T05:21:07.241Z,5.05
2019-05-07T05:23:46.906Z,5.20
2019-05-07T05:26:21.865Z,5.40
2019-05-07T05:28:55.548Z,5.57
2019-05-07T05:31:28.784Z,5.75
2019-05-07T05:34:03.716Z,5.84
2019-05-07T05:36:37.470Z,5.92
2019-05-07T05:39:13.134Z,6.00
2019-05-07T05:41:56.848Z,6.09
2019-05-07T05:44:32.978Z,6.24
2019-05-07T05:47:06.369Z,6.39
2019-05-07T05:49:39.015Z,6.49
2019-05-07T05:52:22.209Z,6.59
2019-05-07T05:55:02.533Z,6.71
2019-05-07T05:57:59.311Z,6.84
2019-05-07T06:00:37.407Z,6.94
2019-05-07T06:03:28.428Z,7.04
2019-05-07T06:06:12.771Z,7.13
2019-05-07T06:08:58.569Z,7.22
2019-05-07T06:11:54.290Z,7.28
2019-05-07T06:14:39.773Z,7.38
2019-05-07T06:17:34.837Z,7.49
2019-05-07T06:20:14.279Z,7.54
2019-05-07T06:23:06.457Z,7.57
2019-05-07T06:25:42.803Z,7.59
2019-05-07T06:28:16.221Z,7.66
2019-05-07T06:30:49.821Z,7.61
2019-05-07T06:33:23.440Z,7.56
2019-05-07T06:35:58.033Z,7.60
2019-05-07T06:38:38.103Z,7.66
2019-05-07T06:42:24.422Z,7.77
2019-05-07T06:45:05.308Z,7.93
2019-05-07T06:47:38.001Z,8.05
2019-05-07T06:50:12.498Z,8.18
2019-05-07T06:52:48.335Z,8.24
2019-05-07T06:55:22.829Z,8.30
2019-05-07T06:57:55.741Z,8.38
2019-05-07T07:00:34.341Z,8.46
2019-05-07T07:03:16.158Z,8.52
2019-05-07T07:05:55.061Z,8.59
2019-05-07T07:08:33.101Z,8.74
2019-05-07T07:11:16.421Z,8.77
2019-05-07T07:13:51.879Z,8.91
2019-05-07T07:16:24.532Z,9.08
2019-05-07T07:18:57.371Z,9.29
2019-05-07T07:21:30.080Z,9.32
2019-05-07T07:24:03.175Z,9.48
2019-05-07T07:26:36.729Z,9.95
2019-05-07T07:29:12.694Z,10.43
2019-05-07T07:31:52.647Z,10.70
2019-05-07T07:34:27.374Z,10.86
2019-05-07T07:37:15.202Z,11.21
2019-05-07T07:40:13.540Z,11.39
2019-05-07T07:42:46.571Z,11.63
2019-05-07T07:45:23.137Z,11.85
2019-05-07T07:47:55.656Z,12.15
2019-05-07T07:50:28.332Z,12.58
2019-05-07T07:53:02.600Z,12.96
2019-05-07T07:55:42.876Z,13.03
2019-05-07T07:58:34.245Z,12.77
2019-05-07T08:01:13.514Z,12.55
2019-05-07T08:03:46.266Z,12.66
2019-05-07T08:06:19.072Z,12.80
2019-05-07T08:08:53.055Z,12.63
2019-05-07T08:11:31.878Z,12.66
2019-05-07T08:14:06.791Z,13.27
2019-05-07T08:16:43.179Z,13.44
2019-05-07T08:19:21.862Z,13.47
2019-05-07T08:21:55.930Z,13.53
2019-05-07T08:24:28.601Z,12.97
2019-05-07T08:27:02.647Z,12.21
2019-05-07T08:29:36.571Z,11.85
2019-05-07T08:32:22.743Z,12.01
2019-05-07T08:35:02.997Z,12.84
2019-05-07T08:37:36.495Z,13.45
2019-05-07T08:40:09.758Z,14.03
2019-05-07T08:42:42.437Z,13.83
2019-05-07T08:45:24.973Z,12.87
2019-05-07T08:48:02.069Z,12.53
2019-05-07T08:50:35.226Z,12.16
2019-05-07T08:53:13.048Z,11.89
2019-05-07T08:55:46.012Z,11.88
2019-05-07T08:58:19.642Z,11.99
2019-05-07T09:00:53.897Z,11.94
2019-05-07T09:03:33.497Z,12.18
2019-05-07T09:06:07.181Z,12.46
2019-05-07T09:08:39.921Z,12.77
2019-05-07T09:11:13.308Z,13.58
2019-05-07T09:13:49.971Z,14.25
2019-05-07T09:16:24.279Z,14.67
2019-05-07T09:18:57.029Z,15.30
2019-05-07T09:21:29.626Z,15.41
2019-05-07T09:24:02.531Z,15.07
2019-05-07T09:26:45.538Z,15.04
2019-05-07T09:29:33.943Z,15.18
2019-05-07T09:32:26.408Z,14.13
2019-05-07T09:35:02.147Z,12.99
2019-05-07T09:37:35.101Z,12.39
2019-05-07T09:40:08.187Z,12.02
2019-05-07T09:42:42.989Z,11.77
2019-05-07T09:45:22.483Z,11.47
2019-05-07T09:47:55.404Z,11.33
2019-05-07T09:50:28.525Z,11.20
2019-05-07T09:53:04.316Z,11.15
2019-05-07T09:55:42.371Z,11.02
2019-05-07T09:58:15.587Z,11.05
2019-05-07T10:00:48.507Z,11.24
2019-05-07T10:03:22.775Z,11.26
2019-05-07T10:05:56.355Z,11.39
2019-05-07T10:08:31.813Z,11.42
2019-05-07T10:11:08.451Z,11.40
2019-05-07T10:13:52.490Z,11.44
2019-05-07T10:16:38.736Z,11.62
2019-05-07T10:19:11.443Z,11.76
2019-05-07T10:21:44.164Z,11.96
2019-05-07T10:24:18.105Z,12.12
2019-05-07T10:26:53.528Z,12.17
2019-05-07T10:29:27.558Z,12.26
2019-05-07T10:32:02.179Z,12.33
2019-05-07T10:34:37.410Z,12.27
2019-05-07T10:37:12.151Z,12.26
2019-05-07T10:39:45.319Z,12.46
2019-05-07T10:42:22.726Z,12.81
2019-05-07T10:45:13.125Z,12.85
2019-05-07T10:48:03.814Z,12.86
2019-05-07T10:50:39.354Z,12.92
2019-05-07T10:53:12.533Z,13.14
2019-05-07T10:55:46.418Z,13.21
2019-05-07T10:58:20.089Z,13.03
2019-05-07T11:01:03.017Z,12.87
2019-05-07T11:03:36.479Z,13.03
2019-05-07T11:06:11.847Z,13.25
2019-05-07T11:08:45.087Z,13.55
2019-05-07T11:11:17.839Z,13.81
2019-05-07T11:13:57.449Z,14.06
2019-05-07T11:16:39.254Z,14.25
2019-05-07T11:19:12.798Z,14.45
2019-05-07T11:21:46.548Z,14.35
2019-05-07T11:24:26.289Z,14.54
2019-05-07T11:26:59.686Z,14.55
2019-05-07T11:29:36.655Z,14.50
2019-05-07T11:32:15.739Z,14.59
2019-05-07T11:34:49.737Z,14.94
2019-05-07T11:37:22.627Z,15.26
2019-05-07T11:39:57.026Z,15.26
2019-05-07T11:42:38.002Z,15.25
2019-05-07T11:45:22.748Z,15.31
2019-05-07T11:48:01.854Z,15.18
2019-05-07T11:51:00.496Z,15.05
2019-05-07T11:54:01.964Z,14.79
2019-05-07T11:56:35.100Z,14.64
2019-05-07T11:59:08.253Z,14.12
2019-05-07T12:01:48.362Z,13.84
2019-05-07T12:04:22.346Z,13.89
2019-05-07T12:06:55.854Z,14.02
2019-05-07T12:09:29.254Z,13.96
2019-05-07T12:12:02.547Z,13.85
2019-05-07T12:14:38.335Z,14.04
2019-05-07T12:17:11.974Z,14.28
2019-05-07T12:19:46.026Z,14.55
2019-05-07T12:22:25.176Z,14.79
2019-05-07T12:24:57.917Z,14.94
2019-05-07T12:27:32.349Z,15.00
2019-05-07T12:30:12.047Z,14.95
2019-05-07T12:32:56.281Z,14.88
2019-05-07T12:35:28.982Z,15.26
2019-05-07T12:38:02.160Z,15.32
2019-05-07T12:40:35.720Z,15.51
2019-05-07T12:43:10.623Z,16.10
2019-05-07T12:45:44.346Z,16.32
2019-05-07T12:48:16.953Z,16.09
2019-05-07T12:50:52.620Z,16.09
2019-05-07T12:53:35.428Z,16.09
2019-05-07T12:56:11.118Z,16.16
2019-05-07T12:58:47.759Z,16.00
2019-05-07T13:01:45.823Z,16.21
2019-05-07T13:04:22.492Z,15.78
2019-05-07T13:07:13.105Z,15.34
2019-05-07T13:09:45.775Z,15.28
2019-05-07T13:12:21.613Z,15.27
2019-05-07T13:14:55.422Z,15.41
2019-05-07T13:17:28.222Z,15.59
2019-05-07T13:20:01.887Z,15.69
2019-05-07T13:22:35.710Z,15.95
2019-05-07T13:25:11.886Z,15.85
2019-05-07T13:27:45.715Z,16.21
2019-05-07T13:30:22.247Z,16.35
2019-05-07T13:33:02.048Z,16.41
2019-05-07T13:35:37.414Z,17.11
2019-05-07T13:38:21.074Z,17.71
2019-05-07T13:41:02.426Z,18.40
2019-05-07T13:44:02.916Z,18.91
2019-05-07T13:46:45.137Z,19.13
2019-05-07T13:49:18.858Z,18.76
2019-05-07T13:52:03.269Z,18.75
2019-05-07T13:54:41.943Z,18.69
2019-05-07T13:57:15.857Z,18.36
2019-05-07T13:59:49.931Z,17.68
2019-05-07T14:02:33.551Z,17.62
2019-05-07T14:05:06.967Z,17.88
2019-05-07T14:08:12.027Z,18.16
2019-05-07T14:10:54.788Z,17.98
2019-05-07T14:13:28.254Z,17.05
2019-05-07T14:16:11.881Z,16.56
2019-05-07T14:18:46.025Z,16.21
2019-05-07T14:21:22.557Z,16.32
2019-05-07T14:24:04.321Z,16.49
2019-05-07T14:26:37.336Z,16.74
2019-05-07T14:29:12.962Z,16.70
2019-05-07T14:31:52.418Z,16.33
2019-05-07T14:34:34.905Z,15.84
2019-05-07T14:37:19.210Z,15.24
2019-05-07T14:39:55.993Z,15.00
2019-05-07T14:42:41.835Z,15.00
2019-05-07T14:45:18.356Z,14.69
2019-05-07T14:47:52.318Z,14.55
2019-05-07T14:50:28.459Z,14.46
2019-05-07T14:53:06.528Z,14.69
2019-05-07T14:55:46.018Z,14.74
2019-05-07T14:58:20.968Z,14.79
2019-05-07T15:00:55.837Z,15.02
2019-05-07T15:03:32.020Z,15.05
2019-05-07T15:06:05.560Z,15.02
2019-05-07T15:08:42.969Z,15.13
2019-05-07T15:11:18.474Z,15.57
2019-05-07T15:14:05.293Z,15.64
2019-05-07T15:16:38.455Z,15.84
2019-05-07T15:19:14.730Z,15.64
2019-05-07T15:21:51.743Z,15.30
2019-05-07T15:24:26.897Z,15.16
2019-05-07T15:27:03.535Z,15.09
2019-05-07T15:29:36.303Z,14.94
2019-05-07T15:32:12.608Z,14.75
2019-05-07T15:34:46.706Z,15.06
2019-05-07T15:37:20.924Z,15.24
2019-05-07T15:39:57.422Z,15.57
2019-05-07T15:42:33.399Z,15.77
2019-05-07T15:45:18.239Z,15.97
2019-05-07T15:47:56.512Z,15.97
2019-05-07T15:50:32.052Z,15.76
2019-05-07T15:53:15.798Z,15.87
2019-05-07T15:55:48.633Z,16.16
2019-05-07T15:58:22.821Z,16.48
2019-05-07T16:01:02.167Z,16.68
2019-05-07T16:03:46.242Z,16.34
2019-05-07T16:06:25.057Z,15.89
2019-05-07T16:09:07.512Z,15.45
2019-05-07T16:11:50.678Z,15.31
2019-05-07T16:14:28.148Z,15.46
2019-05-07T16:17:18.173Z,15.34
2019-05-07T16:19:56.068Z,15.14
2019-05-07T16:22:39.663Z,14.99
2019-05-07T16:25:22.357Z,14.85
2019-05-07T16:28:04.431Z,14.96
2019-05-07T16:30:43.189Z,14.98
2019-05-07T16:33:22.282Z,14.98
2019-05-07T16:36:15.447Z,14.94
2019-05-07T16:38:53.834Z,15.09
2019-05-07T16:41:26.604Z,15.29
2019-05-07T16:44:02.722Z,15.47
2019-05-07T16:46:36.531Z,15.57
2019-05-07T16:49:13.577Z,15.73
2019-05-07T16:52:02.950Z,15.87
2019-05-07T16:54:38.462Z,15.77
2019-05-07T16:57:33.369Z,15.73
2019-05-07T17:00:17.348Z,15.52
2019-05-07T17:02:57.112Z,15.23
2019-05-07T17:05:32.121Z,15.09
2019-05-07T17:08:12.950Z,15.03
2019-05-07T17:10:54.757Z,14.91
2019-05-07T17:13:35.327Z,14.77
2019-05-07T17:16:12.640Z,14.53
2019-05-07T17:18:55.284Z,14.38
2019-05-07T17:21:32.410Z,14.35
2019-05-07T17:24:12.901Z,14.49
2019-05-07T17:26:46.128Z,14.66
2019-05-07T17:29:22.694Z,14.59
2019-05-07T17:31:57.155Z,14.62
2019-05-07T17:34:38.214Z,14.70
2019-05-07T17:37:12.644Z,14.69
2019-05-07T17:39:49.852Z,14.59
2019-05-07T17:42:25.349Z,14.49
2019-05-07T17:44:59.499Z,14.46
2019-05-07T17:47:36.662Z,14.40
2019-05-07T17:50:14.778Z,14.33
2019-05-07T17:52:53.328Z,14.21
2019-05-07T17:55:32.966Z,13.95
2019-05-07T17:58:07.870Z,13.62
2019-05-07T18:00:45.315Z,13.39
2019-05-07T18:03:25.249Z,13.27
2019-05-07T18:05:58.032Z,13.18
2019-05-07T18:08:33.321Z,13.05
2019-05-07T18:11:18.534Z,12.93
2019-05-07T18:13:54.259Z,12.88
2019-05-07T18:16:36.775Z,12.80
2019-05-07T18:19:13.531Z,12.71
2019-05-07T18:21:48.971Z,12.63
2019-05-07T18:24:25.936Z,12.56
2019-05-07T18:27:03.585Z,12.46
2019-05-07T18:29:37.958Z,12.37
2019-05-07T18:32:12.932Z,12.29
2019-05-07T18:34:45.875Z,12.22
2019-05-07T18:37:22.875Z,12.17
2019-05-07T18:40:02.526Z,12.09
2019-05-07T18:42:41.743Z,12.03
2019-05-07T18:45:17.031Z,11.94
2019-05-07T18:47:51.770Z,11.84
2019-05-07T18:50:24.616Z,11.71
2019-05-07T18:52:59.129Z,11.67
2019-05-07T18:55:33.699Z,11.80
2019-05-07T18:58:09.379Z,11.65
2019-05-07T19:00:48.524Z,11.39
2019-05-07T19:03:22.075Z,11.14
2019-05-07T19:05:56.055Z,10.93
2019-05-07T19:08:32.678Z,10.75
2019-05-07T19:11:09.329Z,10.52
2019-05-07T19:13:44.004Z,10.30
2019-05-07T19:16:19.935Z,10.16
2019-05-07T19:18:53.984Z,10.01
2019-05-07T19:21:28.250Z,9.85
2019-05-07T19:24:02.402Z,9.75
2019-05-07T19:26:38.225Z,9.61
2019-05-07T19:29:12.437Z,9.48
2019-05-07T19:31:45.477Z,9.33
2019-05-07T19:34:21.815Z,9.15
2019-05-07T19:36:57.534Z,9.00
2019-05-07T19:39:32.496Z,8.84
2019-05-07T19:42:06.579Z,8.76
2019-05-07T19:44:42.336Z,8.73
2019-05-07T19:47:18.119Z,8.55
2019-05-07T19:49:53.904Z,8.39
2019-05-07T19:52:28.705Z,8.26
2019-05-07T19:55:09.316Z,8.16
2019-05-07T19:57:52.390Z,8.05
2019-05-07T20:00:29.039Z,7.97
2019-05-07T20:03:06.657Z,7.89
2019-05-07T20:05:42.194Z,7.84
2019-05-07T20:08:17.069Z,7.74
2019-05-07T20:10:59.514Z,7.62
2019-05-07T20:13:40.891Z,7.52
2019-05-07T20:16:25.080Z,7.39
2019-05-07T20:19:05.800Z,7.28
2019-05-07T20:21:38.421Z,7.18
2019-05-07T20:24:12.631Z,7.10
2019-05-07T20:26:45.825Z,7.06
2019-05-07T20:29:22.724Z,7.04
2019-05-07T20:31:57.251Z,7.02
2019-05-07T20:34:32.930Z,6.98
2019-05-07T20:37:07.591Z,6.99
2019-05-07T20:39:44.774Z,7.07
2019-05-07T20:42:19.736Z,7.07
2019-05-07T20:44:55.325Z,7.08
2019-05-07T20:47:29.513Z,7.15
2019-05-07T20:50:02.138Z,7.18
2019-05-07T20:52:47.326Z,7.17
2019-05-07T20:55:34.111Z,7.26
2019-05-07T20:58:07.619Z,7.31
2019-05-07T21:00:45.544Z,7.30
2019-05-07T21:03:19.659Z,7.29
2019-05-07T21:05:54.940Z,7.33
2019-05-07T21:08:27.544Z,7.31
2019-05-07T21:11:02.501Z,7.26
2019-05-07T21:13:36.450Z,7.21
2019-05-07T21:16:12.609Z,7.19
2019-05-07T21:18:47.433Z,7.14
2019-05-07T21:21:21.820Z,6.99
2019-05-07T21:23:56.243Z,6.94
2019-05-07T21:26:32.494Z,6.93
2019-05-07T21:29:06.647Z,6.90
2019-05-07T21:31:43.244Z,6.84
2019-05-07T21:34:17.490Z,6.81
2019-05-07T21:36:53.892Z,6.88
2019-05-07T21:39:26.636Z,6.97
2019-05-07T21:42:01.550Z,7.04
2019-05-07T21:44:34.177Z,7.07
2019-05-07T21:47:07.721Z,7.08
2019-05-07T21:49:43.031Z,7.10
2019-05-07T21:52:18.840Z,7.15
2019-05-07T21:55:04.263Z,7.23
2019-05-07T21:57:49.601Z,7.35
2019-05-07T22:00:48.801Z,7.44
2019-05-07T22:03:34.981Z,7.62
2019-05-07T22:06:15.832Z,7.69
2019-05-07T22:08:49.267Z,7.73
2019-05-07T22:11:23.024Z,7.85
2019-05-07T22:13:57.136Z,7.97
2019-05-07T22:16:32.884Z,8.02
2019-05-07T22:19:07.613Z,8.12
2019-05-07T22:21:42.947Z,8.20
2019-05-07T22:24:16.647Z,8.26
2019-05-07T22:26:50.643Z,8.31
2019-05-07T22:29:24.289Z,8.33
2019-05-07T22:32:18.512Z,8.39
2019-05-07T22:34:56.754Z,8.44
2019-05-07T22:37:29.394Z,8.52
2019-05-07T22:40:02.796Z,8.62
2019-05-07T22:42:38.530Z,8.59
2019-05-07T22:45:14.763Z,8.53
2019-05-07T22:47:47.253Z,8.49
2019-05-07T22:50:22.679Z,8.43
2019-05-07T22:52:55.343Z,8.40
2019-05-07T22:55:28.953Z,8.37
2019-05-07T22:58:17.981Z,8.35
2019-05-07T23:00:57.087Z,8.35
2019-05-07T23:03:32.135Z,8.37
2019-05-07T23:06:06.410Z,8.47
2019-05-07T23:08:42.370Z,8.51
2019-05-07T23:11:16.738Z,8.56
2019-05-07T23:13:54.396Z,8.62
2019-05-07T23:16:29.949Z,8.71
2019-05-07T23:19:02.870Z,8.71
2019-05-07T23:21:35.455Z,8.71
2019-05-07T23:24:08.051Z,8.70
2019-05-07T23:26:50.273Z,8.71
2019-05-07T23:29:24.660Z,8.69
2019-05-07T23:31:58.093Z,8.66
2019-05-07T23:34:32.738Z,8.61
2019-05-07T23:37:05.315Z,8.59
2019-05-07T23:39:42.535Z,8.54
2019-05-07T23:42:20.509Z,8.50
2019-05-07T23:44:54.622Z,8.48
2019-05-07T23:47:31.623Z,8.37
2019-05-07T23:50:09.095Z,8.32
2019-05-07T23:52:44.163Z,8.28
2019-05-07T23:55:17.564Z,8.28
2019-05-07T23:57:52.376Z,8.26
